sensor_id;sensor_type;location;lat;lon;timestamp;P1;durP1;ratioP1;P2;durP2;ratioP2
43883;SDS011;71973;52.018;5.810;2023-10-19T00:02:01;3.05;;;1.80;;
43883;SDS011;71973;52.018;5.810;2023-10-19T00:04:28;3.30;;;2.03;;
43883;SDS011;71973;52.018;5.810;2023-10-19T00:06:57;3.03;;;1.88;;
43883;SDS011;71973;52.018;5.810;2023-10-19T00:09:23;2.53;;;1.80;;
43883;SDS011;71973;52.018;5.810;2023-10-19T00:11:50;2.47;;;1.80;;
43883;SDS011;71973;52.018;5.810;2023-10-19T00:14:17;1.95;;;1.60;;
43883;SDS011;71973;52.018;5.810;2023-10-19T00:16:43;2.28;;;1.70;;
43883;SDS011;71973;52.018;5.810;2023-10-19T00:19:18;3.05;;;1.85;;
43883;SDS011;71973;52.018;5.810;2023-10-19T00:21:47;3.75;;;1.90;;
43883;SDS011;71973;52.018;5.810;2023-10-19T00:24:17;3.78;;;1.80;;
43883;SDS011;71973;52.018;5.810;2023-10-19T00:26:47;2.85;;;1.80;;
43883;SDS011;71973;52.018;5.810;2023-10-19T00:29:20;1.95;;;1.63;;
43883;SDS011;71973;52.018;5.810;2023-10-19T00:31:55;3.15;;;1.67;;
43883;SDS011;71973;52.018;5.810;2023-10-19T00:34:21;2.38;;;1.55;;
43883;SDS011;71973;52.018;5.810;2023-10-19T00:36:49;2.85;;;1.83;;
43883;SDS011;71973;52.018;5.810;2023-10-19T00:39:16;2.60;;;1.73;;
43883;SDS011;71973;52.018;5.810;2023-10-19T00:41:52;3.15;;;1.88;;
43883;SDS011;71973;52.018;5.810;2023-10-19T00:44:22;3.60;;;2.08;;
43883;SDS011;71973;52.018;5.810;2023-10-19T00:47:01;2.28;;;1.73;;
43883;SDS011;71973;52.018;5.810;2023-10-19T00:49:37;4.32;;;1.75;;
43883;SDS011;71973;52.018;5.810;2023-10-19T00:52:03;2.50;;;1.70;;
43883;SDS011;71973;52.018;5.810;2023-10-19T00:54:44;2.78;;;1.80;;
43883;SDS011;71973;52.018;5.810;2023-10-19T00:57:18;3.38;;;1.92;;
43883;SDS011;71973;52.018;5.810;2023-10-19T01:00:10;2.95;;;1.88;;
43883;SDS011;71973;52.018;5.810;2023-10-19T01:02:40;3.33;;;2.00;;
43883;SDS011;71973;52.018;5.810;2023-10-19T01:05:10;2.85;;;1.80;;
43883;SDS011;71973;52.018;5.810;2023-10-19T01:07:38;3.25;;;1.60;;
43883;SDS011;71973;52.018;5.810;2023-10-19T01:10:09;3.17;;;1.70;;
43883;SDS011;71973;52.018;5.810;2023-10-19T01:12:46;2.30;;;1.48;;
43883;SDS011;71973;52.018;5.810;2023-10-19T01:15:21;2.65;;;1.90;;
43883;SDS011;71973;52.018;5.810;2023-10-19T01:17:55;3.78;;;1.77;;
43883;SDS011;71973;52.018;5.810;2023-10-19T01:20:24;3.50;;;2.08;;
43883;SDS011;71973;52.018;5.810;2023-10-19T01:23:03;2.38;;;1.60;;
43883;SDS011;71973;52.018;5.810;2023-10-19T01:25:45;2.47;;;1.60;;
43883;SDS011;71973;52.018;5.810;2023-10-19T01:28:21;2.25;;;1.65;;
43883;SDS011;71973;52.018;5.810;2023-10-19T01:30:53;3.33;;;1.85;;
43883;SDS011;71973;52.018;5.810;2023-10-19T01:33:19;3.33;;;1.80;;
43883;SDS011;71973;52.018;5.810;2023-10-19T01:35:45;2.90;;;1.95;;
43883;SDS011;71973;52.018;5.810;2023-10-19T01:38:30;2.78;;;1.88;;
43883;SDS011;71973;52.018;5.810;2023-10-19T01:40:56;2.50;;;1.85;;
43883;SDS011;71973;52.018;5.810;2023-10-19T01:43:24;1.55;;;1.40;;
43883;SDS011;71973;52.018;5.810;2023-10-19T01:45:55;3.22;;;2.05;;
43883;SDS011;71973;52.018;5.810;2023-10-19T01:48:21;2.75;;;1.95;;
43883;SDS011;71973;52.018;5.810;2023-10-19T01:51:10;2.30;;;1.70;;
43883;SDS011;71973;52.018;5.810;2023-10-19T01:53:38;1.95;;;1.63;;
43883;SDS011;71973;52.018;5.810;2023-10-19T01:56:07;3.47;;;1.75;;
43883;SDS011;71973;52.018;5.810;2023-10-19T01:58:38;2.58;;;1.85;;
43883;SDS011;71973;52.018;5.810;2023-10-19T02:01:04;2.58;;;1.65;;
43883;SDS011;71973;52.018;5.810;2023-10-19T02:04:00;2.58;;;1.70;;
43883;SDS011;71973;52.018;5.810;2023-10-19T02:06:29;2.33;;;1.70;;
43883;SDS011;71973;52.018;5.810;2023-10-19T02:09:03;3.38;;;2.28;;
43883;SDS011;71973;52.018;5.810;2023-10-19T02:11:42;3.03;;;1.90;;
43883;SDS011;71973;52.018;5.810;2023-10-19T02:14:11;2.72;;;1.70;;
43883;SDS011;71973;52.018;5.810;2023-10-19T02:16:40;3.28;;;1.90;;
43883;SDS011;71973;52.018;5.810;2023-10-19T02:19:08;4.28;;;1.60;;
43883;SDS011;71973;52.018;5.810;2023-10-19T02:21:34;2.53;;;1.80;;
43883;SDS011;71973;52.018;5.810;2023-10-19T02:24:05;2.05;;;1.42;;
43883;SDS011;71973;52.018;5.810;2023-10-19T02:26:32;2.90;;;1.80;;
43883;SDS011;71973;52.018;5.810;2023-10-19T02:28:58;2.08;;;1.50;;
43883;SDS011;71973;52.018;5.810;2023-10-19T02:31:24;2.33;;;1.70;;
43883;SDS011;71973;52.018;5.810;2023-10-19T02:36:19;3.60;;;1.90;;
43883;SDS011;71973;52.018;5.810;2023-10-19T02:38:45;2.05;;;1.40;;
43883;SDS011;71973;52.018;5.810;2023-10-19T02:41:17;3.38;;;2.00;;
43883;SDS011;71973;52.018;5.810;2023-10-19T02:43:47;2.53;;;1.70;;
43883;SDS011;71973;52.018;5.810;2023-10-19T02:46:16;2.78;;;1.77;;
43883;SDS011;71973;52.018;5.810;2023-10-19T02:48:43;2.25;;;1.60;;
43883;SDS011;71973;52.018;5.810;2023-10-19T02:51:10;3.25;;;1.88;;
43883;SDS011;71973;52.018;5.810;2023-10-19T02:53:37;2.83;;;1.58;;
43883;SDS011;71973;52.018;5.810;2023-10-19T02:56:13;2.75;;;1.50;;
43883;SDS011;71973;52.018;5.810;2023-10-19T02:58:42;2.42;;;1.80;;
43883;SDS011;71973;52.018;5.810;2023-10-19T03:03:33;2.42;;;1.48;;
43883;SDS011;71973;52.018;5.810;2023-10-19T03:05:59;3.95;;;1.60;;
43883;SDS011;71973;52.018;5.810;2023-10-19T03:08:28;3.42;;;1.50;;
43883;SDS011;71973;52.018;5.810;2023-10-19T03:10:54;3.38;;;1.75;;
43883;SDS011;71973;52.018;5.810;2023-10-19T03:13:29;2.40;;;1.73;;
43883;SDS011;71973;52.018;5.810;2023-10-19T03:15:56;1.83;;;1.50;;
43883;SDS011;71973;52.018;5.810;2023-10-19T03:18:22;2.75;;;1.77;;
43883;SDS011;71973;52.018;5.810;2023-10-19T03:20:50;2.47;;;1.60;;
43883;SDS011;71973;52.018;5.810;2023-10-19T03:23:16;2.08;;;1.48;;
43883;SDS011;71973;52.018;5.810;2023-10-19T03:25:42;4.05;;;1.77;;
43883;SDS011;71973;52.018;5.810;2023-10-19T03:28:26;2.42;;;1.50;;
43883;SDS011;71973;52.018;5.810;2023-10-19T03:30:54;2.00;;;1.48;;
43883;SDS011;71973;52.018;5.810;2023-10-19T03:33:20;2.20;;;1.52;;
43883;SDS011;71973;52.018;5.810;2023-10-19T03:35:51;2.13;;;1.40;;
43883;SDS011;71973;52.018;5.810;2023-10-19T03:38:19;2.28;;;1.50;;
43883;SDS011;71973;52.018;5.810;2023-10-19T03:40:47;2.65;;;1.83;;
43883;SDS011;71973;52.018;5.810;2023-10-19T03:43:17;2.40;;;1.45;;
43883;SDS011;71973;52.018;5.810;2023-10-19T03:45:46;2.30;;;1.75;;
43883;SDS011;71973;52.018;5.810;2023-10-19T03:48:20;2.50;;;1.42;;
43883;SDS011;71973;52.018;5.810;2023-10-19T03:50:51;2.20;;;1.42;;
43883;SDS011;71973;52.018;5.810;2023-10-19T03:53:18;2.25;;;1.30;;
43883;SDS011;71973;52.018;5.810;2023-10-19T03:55:46;2.20;;;1.52;;
43883;SDS011;71973;52.018;5.810;2023-10-19T03:58:12;2.00;;;1.35;;
43883;SDS011;71973;52.018;5.810;2023-10-19T04:00:38;3.67;;;1.40;;
43883;SDS011;71973;52.018;5.810;2023-10-19T04:03:04;2.70;;;1.45;;
43883;SDS011;71973;52.018;5.810;2023-10-19T04:05:30;2.15;;;1.45;;
43883;SDS011;71973;52.018;5.810;2023-10-19T04:07:59;1.80;;;1.05;;
43883;SDS011;71973;52.018;5.810;2023-10-19T04:10:26;1.67;;;1.38;;
43883;SDS011;71973;52.018;5.810;2023-10-19T04:13:01;1.42;;;1.20;;
43883;SDS011;71973;52.018;5.810;2023-10-19T04:15:28;2.47;;;1.38;;
43883;SDS011;71973;52.018;5.810;2023-10-19T04:17:54;1.95;;;1.30;;
43883;SDS011;71973;52.018;5.810;2023-10-19T04:20:23;5.47;;;1.65;;
43883;SDS011;71973;52.018;5.810;2023-10-19T04:23:07;1.92;;;1.40;;
43883;SDS011;71973;52.018;5.810;2023-10-19T04:25:36;2.10;;;1.15;;
43883;SDS011;71973;52.018;5.810;2023-10-19T04:28:02;3.10;;;1.33;;
43883;SDS011;71973;52.018;5.810;2023-10-19T04:30:30;2.85;;;1.33;;
43883;SDS011;71973;52.018;5.810;2023-10-19T04:32:58;2.50;;;1.20;;
43883;SDS011;71973;52.018;5.810;2023-10-19T04:35:26;3.33;;;1.20;;
43883;SDS011;71973;52.018;5.810;2023-10-19T04:37:57;1.95;;;1.05;;
43883;SDS011;71973;52.018;5.810;2023-10-19T04:40:24;4.35;;;1.65;;
43883;SDS011;71973;52.018;5.810;2023-10-19T04:45:17;2.25;;;1.13;;
43883;SDS011;71973;52.018;5.810;2023-10-19T04:47:43;3.38;;;1.75;;
43883;SDS011;71973;52.018;5.810;2023-10-19T04:50:09;1.75;;;1.10;;
43883;SDS011;71973;52.018;5.810;2023-10-19T04:52:35;3.28;;;1.42;;
43883;SDS011;71973;52.018;5.810;2023-10-19T04:55:01;3.33;;;1.27;;
43883;SDS011;71973;52.018;5.810;2023-10-19T04:57:27;2.53;;;1.52;;
43883;SDS011;71973;52.018;5.810;2023-10-19T04:59:53;2.95;;;1.02;;
43883;SDS011;71973;52.018;5.810;2023-10-19T05:02:20;2.25;;;1.17;;
43883;SDS011;71973;52.018;5.810;2023-10-19T05:04:46;3.70;;;1.10;;
43883;SDS011;71973;52.018;5.810;2023-10-19T05:07:12;2.45;;;1.10;;
43883;SDS011;71973;52.018;5.810;2023-10-19T05:09:41;3.05;;;1.20;;
43883;SDS011;71973;52.018;5.810;2023-10-19T05:12:07;2.40;;;1.17;;
43883;SDS011;71973;52.018;5.810;2023-10-19T05:14:37;2.33;;;1.10;;
43883;SDS011;71973;52.018;5.810;2023-10-19T05:17:04;3.78;;;1.33;;
43883;SDS011;71973;52.018;5.810;2023-10-19T05:19:31;6.53;;;1.20;;
43883;SDS011;71973;52.018;5.810;2023-10-19T05:21:57;1.75;;;1.10;;
43883;SDS011;71973;52.018;5.810;2023-10-19T05:24:23;3.55;;;1.20;;
43883;SDS011;71973;52.018;5.810;2023-10-19T05:26:49;2.58;;;1.05;;
43883;SDS011;71973;52.018;5.810;2023-10-19T05:29:15;5.15;;;1.08;;
43883;SDS011;71973;52.018;5.810;2023-10-19T05:31:41;1.83;;;1.02;;
43883;SDS011;71973;52.018;5.810;2023-10-19T05:34:07;5.22;;;1.20;;
43883;SDS011;71973;52.018;5.810;2023-10-19T05:36:33;1.60;;;1.10;;
43883;SDS011;71973;52.018;5.810;2023-10-19T05:38:59;2.47;;;1.20;;
43883;SDS011;71973;52.018;5.810;2023-10-19T05:41:25;3.10;;;1.20;;
43883;SDS011;71973;52.018;5.810;2023-10-19T05:43:51;4.53;;;1.33;;
43883;SDS011;71973;52.018;5.810;2023-10-19T05:48:46;3.75;;;1.33;;
43883;SDS011;71973;52.018;5.810;2023-10-19T05:51:13;2.13;;;1.10;;
43883;SDS011;71973;52.018;5.810;2023-10-19T05:53:40;1.92;;;1.10;;
43883;SDS011;71973;52.018;5.810;2023-10-19T05:56:06;2.15;;;1.00;;
43883;SDS011;71973;52.018;5.810;2023-10-19T05:58:32;2.08;;;1.33;;
43883;SDS011;71973;52.018;5.810;2023-10-19T06:00:58;2.88;;;1.30;;
43883;SDS011;71973;52.018;5.810;2023-10-19T06:03:24;2.42;;;1.17;;
43883;SDS011;71973;52.018;5.810;2023-10-19T06:05:51;3.38;;;1.00;;
43883;SDS011;71973;52.018;5.810;2023-10-19T06:08:21;2.03;;;1.10;;
43883;SDS011;71973;52.018;5.810;2023-10-19T06:10:50;3.30;;;1.10;;
43883;SDS011;71973;52.018;5.810;2023-10-19T06:13:17;2.30;;;1.27;;
43883;SDS011;71973;52.018;5.810;2023-10-19T06:15:43;7.85;;;1.05;;
43883;SDS011;71973;52.018;5.810;2023-10-19T06:18:09;2.78;;;1.30;;
43883;SDS011;71973;52.018;5.810;2023-10-19T06:20:35;1.70;;;1.10;;
43883;SDS011;71973;52.018;5.810;2023-10-19T06:23:01;2.10;;;0.98;;
43883;SDS011;71973;52.018;5.810;2023-10-19T06:25:31;4.10;;;1.05;;
43883;SDS011;71973;52.018;5.810;2023-10-19T06:27:57;2.33;;;0.90;;
43883;SDS011;71973;52.018;5.810;2023-10-19T06:30:24;1.45;;;1.05;;
43883;SDS011;71973;52.018;5.810;2023-10-19T06:32:52;2.95;;;1.23;;
43883;SDS011;71973;52.018;5.810;2023-10-19T06:35:19;11.88;;;1.30;;
43883;SDS011;71973;52.018;5.810;2023-10-19T06:37:45;2.25;;;1.00;;
43883;SDS011;71973;52.018;5.810;2023-10-19T06:40:11;3.90;;;1.30;;
43883;SDS011;71973;52.018;5.810;2023-10-19T06:42:39;1.90;;;1.02;;
43883;SDS011;71973;52.018;5.810;2023-10-19T06:45:06;3.75;;;0.80;;
43883;SDS011;71973;52.018;5.810;2023-10-19T06:47:32;7.72;;;1.13;;
43883;SDS011;71973;52.018;5.810;2023-10-19T06:50:02;1.48;;;0.95;;
43883;SDS011;71973;52.018;5.810;2023-10-19T06:52:30;3.97;;;1.35;;
43883;SDS011;71973;52.018;5.810;2023-10-19T06:54:57;4.47;;;1.13;;
43883;SDS011;71973;52.018;5.810;2023-10-19T06:57:23;1.65;;;0.90;;
43883;SDS011;71973;52.018;5.810;2023-10-19T06:59:49;1.73;;;0.90;;
43883;SDS011;71973;52.018;5.810;2023-10-19T07:02:17;2.42;;;1.10;;
43883;SDS011;71973;52.018;5.810;2023-10-19T07:04:45;1.80;;;0.80;;
43883;SDS011;71973;52.018;5.810;2023-10-19T07:07:12;1.60;;;1.10;;
43883;SDS011;71973;52.018;5.810;2023-10-19T07:09:39;1.55;;;0.80;;
43883;SDS011;71973;52.018;5.810;2023-10-19T07:12:06;2.70;;;0.70;;
43883;SDS011;71973;52.018;5.810;2023-10-19T07:14:33;2.80;;;0.98;;
43883;SDS011;71973;52.018;5.810;2023-10-19T07:16:59;3.90;;;0.95;;
43883;SDS011;71973;52.018;5.810;2023-10-19T07:19:25;2.22;;;0.95;;
43883;SDS011;71973;52.018;5.810;2023-10-19T07:21:51;2.95;;;1.10;;
43883;SDS011;71973;52.018;5.810;2023-10-19T07:24:23;3.28;;;0.88;;
43883;SDS011;71973;52.018;5.810;2023-10-19T07:26:49;3.08;;;1.00;;
43883;SDS011;71973;52.018;5.810;2023-10-19T07:29:27;2.95;;;0.88;;
43883;SDS011;71973;52.018;5.810;2023-10-19T07:31:53;2.15;;;0.90;;
43883;SDS011;71973;52.018;5.810;2023-10-19T07:34:20;2.90;;;1.05;;
43883;SDS011;71973;52.018;5.810;2023-10-19T07:36:50;5.97;;;1.30;;
43883;SDS011;71973;52.018;5.810;2023-10-19T07:39:19;5.07;;;1.10;;
43883;SDS011;71973;52.018;5.810;2023-10-19T07:41:45;2.08;;;0.85;;
43883;SDS011;71973;52.018;5.810;2023-10-19T07:44:14;1.45;;;0.77;;
43883;SDS011;71973;52.018;5.810;2023-10-19T07:46:40;5.03;;;0.88;;
43883;SDS011;71973;52.018;5.810;2023-10-19T07:49:07;1.10;;;0.80;;
43883;SDS011;71973;52.018;5.810;2023-10-19T07:51:33;2.10;;;1.00;;
43883;SDS011;71973;52.018;5.810;2023-10-19T07:53:59;2.08;;;0.82;;
43883;SDS011;71973;52.018;5.810;2023-10-19T07:56:25;5.47;;;1.13;;
43883;SDS011;71973;52.018;5.810;2023-10-19T07:58:51;1.60;;;0.70;;
43883;SDS011;71973;52.018;5.810;2023-10-19T08:01:17;1.55;;;1.00;;
43883;SDS011;71973;52.018;5.810;2023-10-19T08:03:43;4.75;;;1.20;;
43883;SDS011;71973;52.018;5.810;2023-10-19T08:06:09;2.42;;;1.08;;
43883;SDS011;71973;52.018;5.810;2023-10-19T08:08:35;3.60;;;1.00;;
43883;SDS011;71973;52.018;5.810;2023-10-19T08:11:01;2.03;;;0.77;;
43883;SDS011;71973;52.018;5.810;2023-10-19T08:13:27;0.73;;;0.55;;
43883;SDS011;71973;52.018;5.810;2023-10-19T08:15:53;1.85;;;0.80;;
43883;SDS011;71973;52.018;5.810;2023-10-19T08:18:20;2.72;;;0.70;;
43883;SDS011;71973;52.018;5.810;2023-10-19T08:20:46;2.05;;;0.70;;
43883;SDS011;71973;52.018;5.810;2023-10-19T08:23:14;2.50;;;1.00;;
43883;SDS011;71973;52.018;5.810;2023-10-19T08:25:41;4.05;;;1.02;;
43883;SDS011;71973;52.018;5.810;2023-10-19T08:28:09;2.42;;;1.35;;
43883;SDS011;71973;52.018;5.810;2023-10-19T08:30:36;3.50;;;0.80;;
43883;SDS011;71973;52.018;5.810;2023-10-19T08:33:02;3.83;;;1.15;;
43883;SDS011;71973;52.018;5.810;2023-10-19T08:37:56;3.43;;;0.87;;
43883;SDS011;71973;52.018;5.810;2023-10-19T08:42:48;1.77;;;0.88;;
43883;SDS011;71973;52.018;5.810;2023-10-19T08:45:15;2.38;;;0.65;;
43883;SDS011;71973;52.018;5.810;2023-10-19T08:50:25;2.22;;;1.00;;
43883;SDS011;71973;52.018;5.810;2023-10-19T08:52:52;4.45;;;0.90;;
43883;SDS011;71973;52.018;5.810;2023-10-19T08:55:19;1.88;;;0.68;;
43883;SDS011;71973;52.018;5.810;2023-10-19T08:57:45;3.28;;;0.98;;
43883;SDS011;71973;52.018;5.810;2023-10-19T09:00:13;3.58;;;0.63;;
43883;SDS011;71973;52.018;5.810;2023-10-19T09:02:42;1.08;;;0.70;;
43883;SDS011;71973;52.018;5.810;2023-10-19T09:05:08;1.65;;;0.93;;
43883;SDS011;71973;52.018;5.810;2023-10-19T09:07:44;2.10;;;0.98;;
43883;SDS011;71973;52.018;5.810;2023-10-19T09:10:12;4.97;;;0.98;;
43883;SDS011;71973;52.018;5.810;2023-10-19T09:12:41;4.35;;;1.00;;
43883;SDS011;71973;52.018;5.810;2023-10-19T09:17:37;2.75;;;0.90;;
43883;SDS011;71973;52.018;5.810;2023-10-19T09:20:06;3.15;;;0.98;;
43883;SDS011;71973;52.018;5.810;2023-10-19T09:22:35;1.92;;;0.70;;
43883;SDS011;71973;52.018;5.810;2023-10-19T09:25:09;4.95;;;1.27;;
43883;SDS011;71973;52.018;5.810;2023-10-19T09:27:35;4.20;;;1.15;;
43883;SDS011;71973;52.018;5.810;2023-10-19T09:30:01;1.42;;;0.73;;
43883;SDS011;71973;52.018;5.810;2023-10-19T09:32:28;4.80;;;0.90;;
43883;SDS011;71973;52.018;5.810;2023-10-19T09:34:57;1.92;;;0.80;;
43883;SDS011;71973;52.018;5.810;2023-10-19T09:37:24;1.63;;;0.80;;
43883;SDS011;71973;52.018;5.810;2023-10-19T09:39:51;4.05;;;0.80;;
43883;SDS011;71973;52.018;5.810;2023-10-19T09:42:17;1.58;;;0.70;;
43883;SDS011;71973;52.018;5.810;2023-10-19T09:47:11;3.58;;;0.70;;
43883;SDS011;71973;52.018;5.810;2023-10-19T09:49:41;3.72;;;0.75;;
43883;SDS011;71973;52.018;5.810;2023-10-19T09:52:10;3.55;;;0.77;;
43883;SDS011;71973;52.018;5.810;2023-10-19T09:57:14;2.97;;;0.70;;
43883;SDS011;71973;52.018;5.810;2023-10-19T09:59:43;2.88;;;0.95;;
43883;SDS011;71973;52.018;5.810;2023-10-19T10:02:13;2.55;;;0.90;;
43883;SDS011;71973;52.018;5.810;2023-10-19T10:04:40;3.00;;;0.93;;
43883;SDS011;71973;52.018;5.810;2023-10-19T10:07:07;1.67;;;0.90;;
43883;SDS011;71973;52.018;5.810;2023-10-19T10:09:34;1.88;;;0.70;;
43883;SDS011;71973;52.018;5.810;2023-10-19T10:12:23;2.97;;;0.77;;
43883;SDS011;71973;52.018;5.810;2023-10-19T10:15:01;1.35;;;0.60;;
43883;SDS011;71973;52.018;5.810;2023-10-19T10:17:28;2.97;;;0.90;;
43883;SDS011;71973;52.018;5.810;2023-10-19T10:19:55;2.85;;;0.88;;
43883;SDS011;71973;52.018;5.810;2023-10-19T10:22:22;3.65;;;0.90;;
43883;SDS011;71973;52.018;5.810;2023-10-19T10:24:53;1.35;;;0.70;;
43883;SDS011;71973;52.018;5.810;2023-10-19T10:27:19;3.40;;;0.90;;
43883;SDS011;71973;52.018;5.810;2023-10-19T10:29:58;1.30;;;0.70;;
43883;SDS011;71973;52.018;5.810;2023-10-19T10:32:43;2.72;;;0.75;;
43883;SDS011;71973;52.018;5.810;2023-10-19T10:35:10;2.83;;;0.95;;
43883;SDS011;71973;52.018;5.810;2023-10-19T10:37:38;3.05;;;0.85;;
43883;SDS011;71973;52.018;5.810;2023-10-19T10:40:05;3.92;;;1.00;;
43883;SDS011;71973;52.018;5.810;2023-10-19T10:42:31;3.00;;;0.95;;
43883;SDS011;71973;52.018;5.810;2023-10-19T10:44:59;2.58;;;0.82;;
43883;SDS011;71973;52.018;5.810;2023-10-19T10:47:27;5.50;;;1.50;;
43883;SDS011;71973;52.018;5.810;2023-10-19T10:49:59;2.13;;;0.82;;
43883;SDS011;71973;52.018;5.810;2023-10-19T10:52:26;4.15;;;1.52;;
43883;SDS011;71973;52.018;5.810;2023-10-19T10:54:54;1.70;;;0.70;;
43883;SDS011;71973;52.018;5.810;2023-10-19T10:57:20;2.38;;;0.90;;
43883;SDS011;71973;52.018;5.810;2023-10-19T10:59:46;3.45;;;0.90;;
43883;SDS011;71973;52.018;5.810;2023-10-19T11:02:21;2.80;;;0.82;;
43883;SDS011;71973;52.018;5.810;2023-10-19T11:04:47;3.78;;;0.98;;
43883;SDS011;71973;52.018;5.810;2023-10-19T11:07:19;3.10;;;1.13;;
43883;SDS011;71973;52.018;5.810;2023-10-19T11:09:46;2.83;;;0.85;;
43883;SDS011;71973;52.018;5.810;2023-10-19T11:12:13;6.03;;;1.40;;
43883;SDS011;71973;52.018;5.810;2023-10-19T11:14:56;3.20;;;0.93;;
43883;SDS011;71973;52.018;5.810;2023-10-19T11:17:25;3.70;;;1.13;;
43883;SDS011;71973;52.018;5.810;2023-10-19T11:19:57;6.05;;;0.90;;
43883;SDS011;71973;52.018;5.810;2023-10-19T11:22:24;2.50;;;0.90;;
43883;SDS011;71973;52.018;5.810;2023-10-19T11:24:51;3.00;;;0.90;;
43883;SDS011;71973;52.018;5.810;2023-10-19T11:27:21;3.85;;;1.10;;
43883;SDS011;71973;52.018;5.810;2023-10-19T11:29:55;1.52;;;0.73;;
43883;SDS011;71973;52.018;5.810;2023-10-19T11:32:21;2.65;;;1.10;;
43883;SDS011;71973;52.018;5.810;2023-10-19T11:34:50;4.72;;;0.60;;
43883;SDS011;71973;52.018;5.810;2023-10-19T11:37:16;2.67;;;0.93;;
43883;SDS011;71973;52.018;5.810;2023-10-19T11:39:42;3.00;;;1.05;;
43883;SDS011;71973;52.018;5.810;2023-10-19T11:42:08;2.88;;;1.02;;
43883;SDS011;71973;52.018;5.810;2023-10-19T11:44:35;5.45;;;1.15;;
43883;SDS011;71973;52.018;5.810;2023-10-19T11:47:01;5.68;;;1.33;;
43883;SDS011;71973;52.018;5.810;2023-10-19T11:49:28;3.97;;;0.85;;
43883;SDS011;71973;52.018;5.810;2023-10-19T11:51:54;7.43;;;1.20;;
43883;SDS011;71973;52.018;5.810;2023-10-19T11:54:20;3.42;;;0.98;;
43883;SDS011;71973;52.018;5.810;2023-10-19T11:56:46;5.03;;;1.00;;
43883;SDS011;71973;52.018;5.810;2023-10-19T11:59:14;2.97;;;0.93;;
43883;SDS011;71973;52.018;5.810;2023-10-19T12:01:40;2.33;;;0.68;;
43883;SDS011;71973;52.018;5.810;2023-10-19T12:04:07;5.80;;;0.82;;
43883;SDS011;71973;52.018;5.810;2023-10-19T12:06:34;4.22;;;0.85;;
43883;SDS011;71973;52.018;5.810;2023-10-19T12:09:00;3.47;;;0.90;;
43883;SDS011;71973;52.018;5.810;2023-10-19T12:11:39;4.45;;;1.63;;
43883;SDS011;71973;52.018;5.810;2023-10-19T12:14:05;2.00;;;0.60;;
43883;SDS011;71973;52.018;5.810;2023-10-19T12:16:36;4.68;;;1.20;;
43883;SDS011;71973;52.018;5.810;2023-10-19T12:19:04;5.72;;;1.02;;
43883;SDS011;71973;52.018;5.810;2023-10-19T12:21:30;1.73;;;0.73;;
43883;SDS011;71973;52.018;5.810;2023-10-19T12:23:56;3.13;;;0.98;;
43883;SDS011;71973;52.018;5.810;2023-10-19T12:26:24;3.65;;;1.00;;
43883;SDS011;71973;52.018;5.810;2023-10-19T12:28:50;2.22;;;0.90;;
43883;SDS011;71973;52.018;5.810;2023-10-19T12:31:16;2.80;;;0.80;;
43883;SDS011;71973;52.018;5.810;2023-10-19T12:33:47;3.75;;;1.10;;
43883;SDS011;71973;52.018;5.810;2023-10-19T12:36:13;4.05;;;1.00;;
43883;SDS011;71973;52.018;5.810;2023-10-19T12:38:48;3.47;;;0.82;;
43883;SDS011;71973;52.018;5.810;2023-10-19T12:41:20;2.58;;;0.85;;
43883;SDS011;71973;52.018;5.810;2023-10-19T12:43:46;2.65;;;0.75;;
43883;SDS011;71973;52.018;5.810;2023-10-19T12:46:15;2.35;;;0.88;;
43883;SDS011;71973;52.018;5.810;2023-10-19T12:48:41;2.22;;;0.93;;
43883;SDS011;71973;52.018;5.810;2023-10-19T12:53:36;3.28;;;1.15;;
43883;SDS011;71973;52.018;5.810;2023-10-19T12:56:03;1.58;;;0.75;;
43883;SDS011;71973;52.018;5.810;2023-10-19T12:58:30;2.90;;;0.95;;
43883;SDS011;71973;52.018;5.810;2023-10-19T13:00:56;2.20;;;0.95;;
43883;SDS011;71973;52.018;5.810;2023-10-19T13:05:52;3.63;;;1.02;;
43883;SDS011;71973;52.018;5.810;2023-10-19T13:08:18;2.42;;;0.93;;
43883;SDS011;71973;52.018;5.810;2023-10-19T13:10:46;5.55;;;1.45;;
43883;SDS011;71973;52.018;5.810;2023-10-19T13:13:13;2.63;;;0.93;;
43883;SDS011;71973;52.018;5.810;2023-10-19T13:15:42;4.00;;;1.25;;
43883;SDS011;71973;52.018;5.810;2023-10-19T13:18:09;3.58;;;0.85;;
43883;SDS011;71973;52.018;5.810;2023-10-19T13:20:39;2.20;;;0.90;;
43883;SDS011;71973;52.018;5.810;2023-10-19T13:23:09;2.65;;;0.85;;
43883;SDS011;71973;52.018;5.810;2023-10-19T13:25:42;2.47;;;0.85;;
43883;SDS011;71973;52.018;5.810;2023-10-19T13:28:33;2.30;;;0.82;;
43883;SDS011;71973;52.018;5.810;2023-10-19T13:31:00;3.17;;;1.40;;
43883;SDS011;71973;52.018;5.810;2023-10-19T13:33:26;5.50;;;1.25;;
43883;SDS011;71973;52.018;5.810;2023-10-19T13:35:53;4.45;;;1.10;;
43883;SDS011;71973;52.018;5.810;2023-10-19T13:38:19;3.15;;;0.93;;
43883;SDS011;71973;52.018;5.810;2023-10-19T13:40:45;1.83;;;0.70;;
43883;SDS011;71973;52.018;5.810;2023-10-19T13:43:11;3.95;;;1.00;;
43883;SDS011;71973;52.018;5.810;2023-10-19T13:45:41;2.20;;;0.80;;
43883;SDS011;71973;52.018;5.810;2023-10-19T13:48:08;3.80;;;0.82;;
43883;SDS011;71973;52.018;5.810;2023-10-19T13:53:01;3.00;;;0.80;;
43883;SDS011;71973;52.018;5.810;2023-10-19T13:55:29;2.75;;;0.90;;
43883;SDS011;71973;52.018;5.810;2023-10-19T13:57:56;2.33;;;0.85;;
43883;SDS011;71973;52.018;5.810;2023-10-19T14:00:22;3.80;;;0.90;;
43883;SDS011;71973;52.018;5.810;2023-10-19T14:03:04;2.78;;;0.98;;
43883;SDS011;71973;52.018;5.810;2023-10-19T14:05:40;2.83;;;0.70;;
43883;SDS011;71973;52.018;5.810;2023-10-19T14:08:13;4.10;;;1.15;;
43883;SDS011;71973;52.018;5.810;2023-10-19T14:10:39;4.22;;;1.10;;
43883;SDS011;71973;52.018;5.810;2023-10-19T14:13:06;2.17;;;0.82;;
43883;SDS011;71973;52.018;5.810;2023-10-19T14:15:32;3.97;;;1.10;;
43883;SDS011;71973;52.018;5.810;2023-10-19T14:17:59;2.95;;;0.93;;
43883;SDS011;71973;52.018;5.810;2023-10-19T14:20:26;2.83;;;0.95;;
43883;SDS011;71973;52.018;5.810;2023-10-19T14:22:53;3.65;;;1.33;;
43883;SDS011;71973;52.018;5.810;2023-10-19T14:25:20;3.63;;;1.13;;
43883;SDS011;71973;52.018;5.810;2023-10-19T14:27:48;2.10;;;0.90;;
43883;SDS011;71973;52.018;5.810;2023-10-19T14:32:40;3.25;;;1.38;;
43883;SDS011;71973;52.018;5.810;2023-10-19T14:35:07;4.32;;;1.10;;
43883;SDS011;71973;52.018;5.810;2023-10-19T14:37:35;3.40;;;1.10;;
43883;SDS011;71973;52.018;5.810;2023-10-19T14:40:03;4.18;;;1.08;;
43883;SDS011;71973;52.018;5.810;2023-10-19T14:42:29;3.72;;;1.20;;
43883;SDS011;71973;52.018;5.810;2023-10-19T14:44:58;3.97;;;1.13;;
43883;SDS011;71973;52.018;5.810;2023-10-19T14:47:24;3.50;;;1.17;;
43883;SDS011;71973;52.018;5.810;2023-10-19T14:49:51;2.25;;;0.93;;
43883;SDS011;71973;52.018;5.810;2023-10-19T14:52:17;4.35;;;1.17;;
43883;SDS011;71973;52.018;5.810;2023-10-19T14:54:44;4.28;;;1.23;;
43883;SDS011;71973;52.018;5.810;2023-10-19T14:57:10;6.40;;;1.17;;
43883;SDS011;71973;52.018;5.810;2023-10-19T15:02:02;4.25;;;1.05;;
43883;SDS011;71973;52.018;5.810;2023-10-19T15:04:32;3.70;;;1.08;;
43883;SDS011;71973;52.018;5.810;2023-10-19T15:06:58;4.95;;;1.20;;
43883;SDS011;71973;52.018;5.810;2023-10-19T15:09:25;6.03;;;1.33;;
43883;SDS011;71973;52.018;5.810;2023-10-19T15:11:51;14.75;;;1.65;;
43883;SDS011;71973;52.018;5.810;2023-10-19T15:14:19;5.53;;;1.33;;
43883;SDS011;71973;52.018;5.810;2023-10-19T15:16:45;2.78;;;1.20;;
43883;SDS011;71973;52.018;5.810;2023-10-19T15:19:11;4.03;;;1.30;;
43883;SDS011;71973;52.018;5.810;2023-10-19T15:21:40;6.50;;;1.33;;
43883;SDS011;71973;52.018;5.810;2023-10-19T15:24:07;4.47;;;1.17;;
43883;SDS011;71973;52.018;5.810;2023-10-19T15:26:33;3.50;;;1.20;;
43883;SDS011;71973;52.018;5.810;2023-10-19T15:28:59;5.07;;;1.23;;
43883;SDS011;71973;52.018;5.810;2023-10-19T15:31:25;2.75;;;1.05;;
43883;SDS011;71973;52.018;5.810;2023-10-19T15:33:51;2.50;;;1.02;;